sensor_id;sensor_type;location;lat;lon;timestamp;pressure;altitude;pressure_sealevel;temperature
60731;BMP280;46580;52.114;11.674;2022-11-20T00:01:45;100776.38;;;-0.24
60731;BMP280;46580;52.114;11.674;2022-11-20T00:04:10;100783.53;;;-0.36
60731;BMP280;46580;52.114;11.674;2022-11-20T00:06:37;100777.91;;;-0.45
60731;BMP280;46580;52.114;11.674;2022-11-20T00:09:02;100774.50;;;-0.44
60731;BMP280;46580;52.114;11.674;2022-11-20T00:11:29;100774.31;;;-0.38
60731;BMP280;46580;52.114;11.674;2022-11-20T00:13:57;100774.31;;;-0.38
60731;BMP280;46580;52.114;11.674;2022-11-20T00:16:24;100766.72;;;-0.38
60731;BMP280;46580;52.114;11.674;2022-11-20T00:18:51;100770.31;;;-0.45
60731;BMP280;46580;52.114;11.674;2022-11-20T00:21:18;100760.53;;;-0.54
60731;BMP280;46580;52.114;11.674;2022-11-20T00:23:43;100762.16;;;-0.53
60731;BMP280;46580;52.114;11.674;2022-11-20T00:26:12;100759.69;;;-0.55
60731;BMP280;46580;52.114;11.674;2022-11-20T00:28:37;100758.38;;;-0.40
60731;BMP280;46580;52.114;11.674;2022-11-20T00:31:06;100754.06;;;-0.37
60731;BMP280;46580;52.114;11.674;2022-11-20T00:33:31;100756.84;;;-0.46
60731;BMP280;46580;52.114;11.674;2022-11-20T00:36:01;100761.88;;;-0.44
60731;BMP280;46580;52.114;11.674;2022-11-20T00:38:27;100756.53;;;-0.36
60731;BMP280;46580;52.114;11.674;2022-11-20T00:40:59;100767.25;;;-0.28
60731;BMP280;46580;52.114;11.674;2022-11-20T00:43:26;100758.88;;;-0.30
60731;BMP280;46580;52.114;11.674;2022-11-20T00:46:04;100762.19;;;-0.28
60731;BMP280;46580;52.114;11.674;2022-11-20T00:48:30;100758.44;;;-0.42
60731;BMP280;46580;52.114;11.674;2022-11-20T00:50:55;100750.06;;;-0.44
60731;BMP280;46580;52.114;11.674;2022-11-20T00:53:21;100748.22;;;-0.39
60731;BMP280;46580;52.114;11.674;2022-11-20T00:55:55;100748.00;;;-0.33
60731;BMP280;46580;52.114;11.674;2022-11-20T00:58:21;100751.28;;;-0.30
60731;BMP280;46580;52.114;11.674;2022-11-20T01:00:46;100752.16;;;-0.31
60731;BMP280;46580;52.114;11.674;2022-11-20T01:03:12;100747.97;;;-0.32
60731;BMP280;46580;52.114;11.674;2022-11-20T01:05:37;100747.19;;;-0.34
60731;BMP280;46580;52.114;11.674;2022-11-20T01:08:02;100743.78;;;-0.33
60731;BMP280;46580;52.114;11.674;2022-11-20T01:10:28;100755.34;;;-0.26
60731;BMP280;46580;52.114;11.674;2022-11-20T01:12:54;100747.00;;;-0.28
60731;BMP280;46580;52.114;11.674;2022-11-20T01:15:39;100743.66;;;-0.28
60731;BMP280;46580;52.114;11.674;2022-11-20T01:18:04;100739.50;;;-0.31
60731;BMP280;46580;52.114;11.674;2022-11-20T01:20:34;100736.78;;;-0.25
60731;BMP280;46580;52.114;11.674;2022-11-20T01:23:00;100737.66;;;-0.26
60731;BMP280;46580;52.114;11.674;2022-11-20T01:25:26;100728.59;;;-0.33
60731;BMP280;46580;52.114;11.674;2022-11-20T01:27:51;100735.31;;;-0.32
60731;BMP280;46580;52.114;11.674;2022-11-20T01:30:16;100732.78;;;-0.32
60731;BMP280;46580;52.114;11.674;2022-11-20T01:32:42;100730.25;;;-0.32
60731;BMP280;46580;52.114;11.674;2022-11-20T01:35:07;100734.44;;;-0.31
60731;BMP280;46580;52.114;11.674;2022-11-20T01:37:34;100728.53;;;-0.30
60731;BMP280;46580;52.114;11.674;2022-11-20T01:40:00;100718.41;;;-0.30
60731;BMP280;46580;52.114;11.674;2022-11-20T01:42:25;100720.03;;;-0.27
60731;BMP280;46580;52.114;11.674;2022-11-20T01:48:12;100715.69;;;-0.24
60731;BMP280;46580;52.114;11.674;2022-11-20T01:50:38;100715.47;;;-0.18
60731;BMP280;46580;52.114;11.674;2022-11-20T01:53:08;100716.34;;;-0.19
60731;BMP280;46580;52.114;11.674;2022-11-20T01:55:37;100715.47;;;-0.18
60731;BMP280;46580;52.114;11.674;2022-11-20T01:58:05;100711.28;;;-0.19
60731;BMP280;46580;52.114;11.674;2022-11-20T02:00:31;100702.81;;;-0.18
60731;BMP280;46580;52.114;11.674;2022-11-20T02:02:59;100710.19;;;-0.12
60731;BMP280;46580;52.114;11.674;2022-11-20T02:05:30;100707.41;;;-0.05
60731;BMP280;46580;52.114;11.674;2022-11-20T02:07:57;100700.66;;;-0.04
60731;BMP280;46580;52.114;11.674;2022-11-20T02:10:24;100700.66;;;-0.04
60731;BMP280;46580;52.114;11.674;2022-11-20T02:12:50;100699.63;;;0.01
60731;BMP280;46580;52.114;11.674;2022-11-20T02:15:34;100702.09;;;0.02
60731;BMP280;46580;52.114;11.674;2022-11-20T02:17:59;100695.16;;;0.07
60731;BMP280;46580;52.114;11.674;2022-11-20T02:20:25;100690.84;;;0.11
60731;BMP280;46580;52.114;11.674;2022-11-20T02:22:56;100694.06;;;0.14
60731;BMP280;46580;52.114;11.674;2022-11-20T02:25:24;100689.19;;;0.10
60731;BMP280;46580;52.114;11.674;2022-11-20T02:27:51;100689.94;;;0.13
60731;BMP280;46580;52.114;11.674;2022-11-20T02:30:16;100682.34;;;0.13
60731;BMP280;46580;52.114;11.674;2022-11-20T02:32:42;100685.03;;;0.07
60731;BMP280;46580;52.114;11.674;2022-11-20T02:35:09;100686.81;;;0.05
60731;BMP280;46580;52.114;11.674;2022-11-20T02:37:37;100691.31;;;-0.02
60731;BMP280;46580;52.114;11.674;2022-11-20T02:40:04;100686.13;;;0.00
60731;BMP280;46580;52.114;11.674;2022-11-20T02:42:29;100681.06;;;0.00
60731;BMP280;46580;52.114;11.674;2022-11-20T02:44:55;100680.94;;;0.05
60731;BMP280;46580;52.114;11.674;2022-11-20T02:47:20;100678.16;;;0.12
60731;BMP280;46580;52.114;11.674;2022-11-20T02:49:45;100678.28;;;0.08
60731;BMP280;46580;52.114;11.674;2022-11-20T02:52:11;100674.66;;;0.15
60731;BMP280;46580;52.114;11.674;2022-11-20T02:54:36;100674.63;;;0.16
60731;BMP280;46580;52.114;11.674;2022-11-20T02:57:01;100668.50;;;0.21
60731;BMP280;46580;52.114;11.674;2022-11-20T02:59:27;100672.66;;;0.24
60731;BMP280;46580;52.114;11.674;2022-11-20T03:01:52;100673.09;;;0.12
60731;BMP280;46580;52.114;11.674;2022-11-20T03:04:17;100674.84;;;0.10
60731;BMP280;46580;52.114;11.674;2022-11-20T03:06:43;100669.88;;;0.07
60731;BMP280;46580;52.114;11.674;2022-11-20T03:09:08;100668.25;;;0.06
60731;BMP280;46580;52.114;11.674;2022-11-20T03:11:34;100666.47;;;0.08
60731;BMP280;46580;52.114;11.674;2022-11-20T03:14:04;100658.88;;;0.08
60731;BMP280;46580;52.114;11.674;2022-11-20T03:16:30;100668.38;;;0.02
60731;BMP280;46580;52.114;11.674;2022-11-20T03:18:56;100660.19;;;-0.04
60731;BMP280;46580;52.114;11.674;2022-11-20T03:21:22;100656.00;;;-0.05
60731;BMP280;46580;52.114;11.674;2022-11-20T03:23:47;100659.69;;;-0.14
60731;BMP280;46580;52.114;11.674;2022-11-20T03:26:18;100665.06;;;-0.22
60731;BMP280;46580;52.114;11.674;2022-11-20T03:29:03;100667.88;;;-0.55
60731;BMP280;46580;52.114;11.674;2022-11-20T03:31:37;100668.47;;;-0.73
60731;BMP280;46580;52.114;11.674;2022-11-20T03:34:06;100661.31;;;-0.86
60731;BMP280;46580;52.114;11.674;2022-11-20T03:36:31;100671.25;;;-1.07
60731;BMP280;46580;52.114;11.674;2022-11-20T03:38:57;100669.09;;;-1.18
60731;BMP280;46580;52.114;11.674;2022-11-20T03:41:27;100670.56;;;-1.12
60731;BMP280;46580;52.114;11.674;2022-11-20T03:44:00;100668.06;;;-1.12
60731;BMP280;46580;52.114;11.674;2022-11-20T03:46:27;100660.56;;;-1.14
60731;BMP280;46580;52.114;11.674;2022-11-20T03:48:52;100671.84;;;-1.26
60731;BMP280;46580;52.114;11.674;2022-11-20T03:51:19;100666.72;;;-1.49
60731;BMP280;46580;52.114;11.674;2022-11-20T03:53:46;100667.78;;;-1.56
60731;BMP280;46580;52.114;11.674;2022-11-20T03:56:13;100666.16;;;-1.59
60731;BMP280;46580;52.114;11.674;2022-11-20T03:58:41;100658.50;;;-1.56
60731;BMP280;46580;52.114;11.674;2022-11-20T04:01:11;100660.00;;;-1.50
60731;BMP280;46580;52.114;11.674;2022-11-20T04:03:38;100658.34;;;-1.51
60731;BMP280;46580;52.114;11.674;2022-11-20T04:08:34;100651.41;;;-1.44
60731;BMP280;46580;52.114;11.674;2022-11-20T04:11:23;100659.66;;;-1.39
60731;BMP280;46580;52.114;11.674;2022-11-20T04:13:51;100651.03;;;-1.32
60731;BMP280;46580;52.114;11.674;2022-11-20T04:16:17;100657.81;;;-1.34
60731;BMP280;46580;52.114;11.674;2022-11-20T04:18:43;100649.59;;;-1.40
60731;BMP280;46580;52.114;11.674;2022-11-20T04:21:09;100645.28;;;-1.37
60731;BMP280;46580;52.114;11.674;2022-11-20T04:23:34;100649.66;;;-1.42
60731;BMP280;46580;52.114;11.674;2022-11-20T04:26:09;100645.59;;;-1.47
60731;BMP280;46580;52.114;11.674;2022-11-20T04:28:35;100642.13;;;-1.43
60731;BMP280;46580;52.114;11.674;2022-11-20T04:31:02;100642.78;;;-1.37
60731;BMP280;46580;52.114;11.674;2022-11-20T04:33:28;100633.41;;;-1.33
60731;BMP280;46580;52.114;11.674;2022-11-20T04:35:53;100641.78;;;-1.33
60731;BMP280;46580;52.114;11.674;2022-11-20T04:38:18;100638.13;;;-1.23
60731;BMP280;46580;52.114;11.674;2022-11-20T04:40:44;100639.03;;;-1.26
60731;BMP280;46580;52.114;11.674;2022-11-20T04:43:09;100642.53;;;-1.30
60731;BMP280;46580;52.114;11.674;2022-11-20T04:45:34;100640.47;;;-1.17
60731;BMP280;46580;52.114;11.674;2022-11-20T04:48:00;100631.84;;;-1.11
60731;BMP280;46580;52.114;11.674;2022-11-20T04:50:25;100633.25;;;-1.02
60731;BMP280;46580;52.114;11.674;2022-11-20T04:52:51;100634.59;;;-0.93
60731;BMP280;46580;52.114;11.674;2022-11-20T04:55:16;100634.72;;;-0.95
60731;BMP280;46580;52.114;11.674;2022-11-20T04:57:41;100633.50;;;-1.10
60731;BMP280;46580;52.114;11.674;2022-11-20T05:00:07;100638.72;;;-1.15
60731;BMP280;46580;52.114;11.674;2022-11-20T05:02:33;100636.88;;;-1.11
60731;BMP280;46580;52.114;11.674;2022-11-20T05:04:58;100632.75;;;-1.13
60731;BMP280;46580;52.114;11.674;2022-11-20T05:07:23;100628.00;;;-1.22
60731;BMP280;46580;52.114;11.674;2022-11-20T05:09:49;100623.59;;;-1.15
60731;BMP280;46580;52.114;11.674;2022-11-20T05:12:14;100617.63;;;-0.88
60731;BMP280;46580;52.114;11.674;2022-11-20T05:14:39;100627.28;;;-0.74
60731;BMP280;46580;52.114;11.674;2022-11-20T05:17:05;100621.72;;;-0.85
60731;BMP280;46580;52.114;11.674;2022-11-20T05:19:30;100622.97;;;-0.96
60731;BMP280;46580;52.114;11.674;2022-11-20T05:21:55;100607.84;;;-0.98
60731;BMP280;46580;52.114;11.674;2022-11-20T05:24:21;100622.13;;;-0.97
60731;BMP280;46580;52.114;11.674;2022-11-20T05:26:47;100619.81;;;-0.79
60731;BMP280;46580;52.114;11.674;2022-11-20T05:29:12;100615.69;;;-0.56
60731;BMP280;46580;52.114;11.674;2022-11-20T05:31:39;100617.91;;;-0.47
60731;BMP280;46580;52.114;11.674;2022-11-20T05:34:06;100624.34;;;-0.63
60731;BMP280;46580;52.114;11.674;2022-11-20T05:36:31;100609.22;;;-0.88
60731;BMP280;46580;52.114;11.674;2022-11-20T05:38:57;100615.41;;;-0.98
60731;BMP280;46580;52.114;11.674;2022-11-20T05:41:22;100610.56;;;-0.78
60731;BMP280;46580;52.114;11.674;2022-11-20T05:43:49;100614.28;;;-0.88
60731;BMP280;46580;52.114;11.674;2022-11-20T05:46:17;100607.94;;;-1.01
60731;BMP280;46580;52.114;11.674;2022-11-20T05:48:45;100606.19;;;-0.99
60731;BMP280;46580;52.114;11.674;2022-11-20T05:51:16;100608.44;;;-0.90
60731;BMP280;46580;52.114;11.674;2022-11-20T05:53:42;100610.75;;;-0.84
60731;BMP280;46580;52.114;11.674;2022-11-20T05:56:10;100608.28;;;-0.86
60731;BMP280;46580;52.114;11.674;2022-11-20T05:58:36;100596.44;;;-0.60
60731;BMP280;46580;52.114;11.674;2022-11-20T06:03:30;100592.53;;;-0.68
60731;BMP280;46580;52.114;11.674;2022-11-20T06:05:58;100596.06;;;-0.74
60731;BMP280;46580;52.114;11.674;2022-11-20T06:08:24;100596.47;;;-0.85
60731;BMP280;46580;52.114;11.674;2022-11-20T06:10:49;100597.41;;;-0.88
60731;BMP280;46580;52.114;11.674;2022-11-20T06:13:14;100601.09;;;-0.97
60731;BMP280;46580;52.114;11.674;2022-11-20T06:15:40;100599.88;;;-1.12
60731;BMP280;46580;52.114;11.674;2022-11-20T06:18:05;100596.97;;;-1.25
60731;BMP280;46580;52.114;11.674;2022-11-20T06:20:30;100606.50;;;-1.34
60731;BMP280;46580;52.114;11.674;2022-11-20T06:22:56;100604.44;;;-1.22
60731;BMP280;46580;52.114;11.674;2022-11-20T06:25:21;100600.34;;;-1.26
60731;BMP280;46580;52.114;11.674;2022-11-20T06:27:47;100598.88;;;-1.33
60731;BMP280;46580;52.114;11.674;2022-11-20T06:30:12;100603.94;;;-1.33
60731;BMP280;46580;52.114;11.674;2022-11-20T06:32:38;100603.47;;;-1.18
60731;BMP280;46580;52.114;11.674;2022-11-20T06:35:03;100593.56;;;-1.24
60731;BMP280;46580;52.114;11.674;2022-11-20T06:37:29;100599.63;;;-1.30
60731;BMP280;46580;52.114;11.674;2022-11-20T06:39:54;100601.97;;;-1.24
60731;BMP280;46580;52.114;11.674;2022-11-20T06:42:19;100603.66;;;-1.24
60731;BMP280;46580;52.114;11.674;2022-11-20T06:44:45;100603.63;;;-1.23
60731;BMP280;46580;52.114;11.674;2022-11-20T06:47:10;100593.44;;;-1.21
60731;BMP280;46580;52.114;11.674;2022-11-20T06:49:35;100601.53;;;-1.36
60731;BMP280;46580;52.114;11.674;2022-11-20T06:52:03;100602.22;;;-1.58
60731;BMP280;46580;52.114;11.674;2022-11-20T06:54:29;100603.94;;;-1.60
60731;BMP280;46580;52.114;11.674;2022-11-20T06:56:54;100599.75;;;-1.61
60731;BMP280;46580;52.114;11.674;2022-11-20T06:59:19;100600.50;;;-1.57
60731;BMP280;46580;52.114;11.674;2022-11-20T07:01:45;100604.09;;;-1.64
60731;BMP280;46580;52.114;11.674;2022-11-20T07:04:10;100603.44;;;-1.70
60731;BMP280;46580;52.114;11.674;2022-11-20T07:06:35;100598.25;;;-1.39
60731;BMP280;46580;52.114;11.674;2022-11-20T07:09:01;100602.22;;;-1.58
60731;BMP280;46580;52.114;11.674;2022-11-20T07:11:26;100602.00;;;-1.79
60731;BMP280;46580;52.114;11.674;2022-11-20T07:13:52;100602.06;;;-1.82
60731;BMP280;46580;52.114;11.674;2022-11-20T07:16:17;100600.53;;;-1.86
60731;BMP280;46580;52.114;11.674;2022-11-20T07:18:43;100596.88;;;-1.76
60731;BMP280;46580;52.114;11.674;2022-11-20T07:21:10;100589.38;;;-1.79
60731;BMP280;46580;52.114;11.674;2022-11-20T07:23:36;100588.72;;;-1.84
60731;BMP280;46580;52.114;11.674;2022-11-20T07:26:05;100583.91;;;-1.92
60731;BMP280;46580;52.114;11.674;2022-11-20T07:28:31;100585.22;;;-1.80
60731;BMP280;46580;52.114;11.674;2022-11-20T07:30:57;100576.09;;;-1.84
60731;BMP280;46580;52.114;11.674;2022-11-20T07:33:22;100569.63;;;-1.92
60731;BMP280;46580;52.114;11.674;2022-11-20T07:35:47;100576.59;;;-2.01
60731;BMP280;46580;52.114;11.674;2022-11-20T07:38:13;100580.88;;;-2.03
60731;BMP280;46580;52.114;11.674;2022-11-20T07:40:38;100580.22;;;-2.09
60731;BMP280;46580;52.114;11.674;2022-11-20T07:43:04;100588.09;;;-1.91
60731;BMP280;46580;52.114;11.674;2022-11-20T07:45:29;100599.19;;;-1.42
60731;BMP280;46580;52.114;11.674;2022-11-20T07:47:54;100619.19;;;-1.36
60731;BMP280;46580;52.114;11.674;2022-11-20T07:50:20;100601.94;;;-1.49
60731;BMP280;46580;52.114;11.674;2022-11-20T07:52:45;100604.75;;;-1.59
60731;BMP280;46580;52.114;11.674;2022-11-20T07:55:10;100607.81;;;-1.48
60731;BMP280;46580;52.114;11.674;2022-11-20T07:57:36;100601.88;;;-1.48
60731;BMP280;46580;52.114;11.674;2022-11-20T08:00:03;100600.94;;;-1.44
60731;BMP280;46580;52.114;11.674;2022-11-20T08:02:29;100593.94;;;-1.36
60731;BMP280;46580;52.114;11.674;2022-11-20T08:04:55;100590.16;;;-1.23
60731;BMP280;46580;52.114;11.674;2022-11-20T08:07:20;100585.78;;;-1.18
60731;BMP280;46580;52.114;11.674;2022-11-20T08:09:45;100578.69;;;-1.08
60731;BMP280;46580;52.114;11.674;2022-11-20T08:12:20;100586.84;;;-1.00
60731;BMP280;46580;52.114;11.674;2022-11-20T08:15:05;100576.22;;;-0.84
60731;BMP280;46580;52.114;11.674;2022-11-20T08:17:31;100578.69;;;-0.82
60731;BMP280;46580;52.114;11.674;2022-11-20T08:19:57;100573.44;;;-0.76
60731;BMP280;46580;52.114;11.674;2022-11-20T08:22:23;100571.00;;;-0.79
60731;BMP280;46580;52.114;11.674;2022-11-20T08:24:48;100577.72;;;-0.78
60731;BMP280;46580;52.114;11.674;2022-11-20T08:27:14;100577.66;;;-0.77
60731;BMP280;46580;52.114;11.674;2022-11-20T08:29:39;100577.66;;;-0.77
60731;BMP280;46580;52.114;11.674;2022-11-20T08:32:04;100588.38;;;-0.71
60731;BMP280;46580;52.114;11.674;2022-11-20T08:34:30;100583.13;;;-0.65
60731;BMP280;46580;52.114;11.674;2022-11-20T08:36:58;100576.34;;;-0.63
60731;BMP280;46580;52.114;11.674;2022-11-20T08:39:24;100574.50;;;-0.59
60731;BMP280;46580;52.114;11.674;2022-11-20T08:41:49;100569.31;;;-0.55
60731;BMP280;46580;52.114;11.674;2022-11-20T08:44:14;100576.03;;;-0.54
60731;BMP280;46580;52.114;11.674;2022-11-20T08:46:41;100572.59;;;-0.53
60731;BMP280;46580;52.114;11.674;2022-11-20T08:49:11;100572.59;;;-0.53
60731;BMP280;46580;52.114;11.674;2022-11-20T08:51:37;100574.03;;;-0.46
60731;BMP280;46580;52.114;11.674;2022-11-20T08:54:03;100569.19;;;-0.52
60731;BMP280;46580;52.114;11.674;2022-11-20T08:56:29;100573.94;;;-0.43
60731;BMP280;46580;52.114;11.674;2022-11-20T08:58:54;100572.94;;;-0.39
60731;BMP280;46580;52.114;11.674;2022-11-20T09:01:21;100567.88;;;-0.39
60731;BMP280;46580;52.114;11.674;2022-11-20T09:03:47;100573.72;;;-0.38
60731;BMP280;46580;52.114;11.674;2022-11-20T09:06:13;100574.59;;;-0.38
60731;BMP280;46580;52.114;11.674;2022-11-20T09:08:39;100570.22;;;-0.34
60731;BMP280;46580;52.114;11.674;2022-11-20T09:11:05;100563.41;;;-0.32
60731;BMP280;46580;52.114;11.674;2022-11-20T09:13:31;100570.63;;;-0.21
60731;BMP280;46580;52.114;11.674;2022-11-20T09:16:03;100565.47;;;-0.20
60731;BMP280;46580;52.114;11.674;2022-11-20T09:18:29;100565.16;;;-0.11
60731;BMP280;46580;52.114;11.674;2022-11-20T09:20:58;100565.03;;;-0.07
60731;BMP280;46580;52.114;11.674;2022-11-20T09:23:24;100565.63;;;-0.00
60731;BMP280;46580;52.114;11.674;2022-11-20T09:25:49;100562.75;;;0.08
60731;BMP280;46580;52.114;11.674;2022-11-20T09:28:15;100561.75;;;0.12
60731;BMP280;46580;52.114;11.674;2022-11-20T09:30:41;100559.97;;;0.14
60731;BMP280;46580;52.114;11.674;2022-11-20T09:33:06;100559.78;;;0.20
60731;BMP280;46580;52.114;11.674;2022-11-20T09:35:32;100554.41;;;0.27
60731;BMP280;46580;52.114;11.674;2022-11-20T09:37:58;100559.19;;;0.35
60731;BMP280;46580;52.114;11.674;2022-11-20T09:40:26;100562.25;;;0.42
60731;BMP280;46580;52.114;11.674;2022-11-20T09:51:17;100551.66;;;0.54
60731;BMP280;46580;52.114;11.674;2022-11-20T09:56:33;100535.75;;;0.72
60731;BMP280;46580;52.114;11.674;2022-11-20T09:59:02;100531.63;;;0.69
60731;BMP280;46580;52.114;11.674;2022-11-20T10:01:32;100530.56;;;0.74
60731;BMP280;46580;52.114;11.674;2022-11-20T10:04:04;100530.50;;;0.76
60731;BMP280;46580;52.114;11.674;2022-11-20T10:06:39;100532.97;;;0.77
60731;BMP280;46580;52.114;11.674;2022-11-20T10:11:59;100530.09;;;0.86
60731;BMP280;46580;52.114;11.674;2022-11-20T10:14:38;100532.41;;;0.91
60731;BMP280;46580;52.114;11.674;2022-11-20T10:25:22;100518.56;;;0.99
60731;BMP280;46580;52.114;11.674;2022-11-20T10:33:58;100517.16;;;1.11
60731;BMP280;46580;52.114;11.674;2022-11-20T10:36:31;100511.16;;;1.14
60731;BMP280;46580;52.114;11.674;2022-11-20T10:39:04;100506.66;;;1.20
60731;BMP280;46580;52.114;11.674;2022-11-20T10:41:34;100503.09;;;1.24
60731;BMP280;46580;52.114;11.674;2022-11-20T10:46:45;100492.56;;;1.33
60731;BMP280;46580;52.114;11.674;2022-11-20T10:49:16;100492.38;;;1.37
60731;BMP280;46580;52.114;11.674;2022-11-20T10:57:07;100484.94;;;1.52
60731;BMP280;46580;52.114;11.674;2022-11-20T11:02:01;100479.59;;;1.58
60731;BMP280;46580;52.114;11.674;2022-11-20T11:04:35;100479.47;;;1.61
60731;BMP280;46580;52.114;11.674;2022-11-20T11:07:10;100482.72;;;1.63
60731;BMP280;46580;52.114;11.674;2022-11-20T11:09:42;100476.66;;;1.67
60731;BMP280;46580;52.114;11.674;2022-11-20T11:12:09;100475.50;;;1.74
60731;BMP280;46580;52.114;11.674;2022-11-20T11:14:52;100482.06;;;1.78
60731;BMP280;46580;52.114;11.674;2022-11-20T11:20:19;100463.13;;;1.85
60731;BMP280;46580;52.114;11.674;2022-11-20T11:22:51;100460.19;;;1.93
60731;BMP280;46580;52.114;11.674;2022-11-20T11:25:25;100459.63;;;2.05
60731;BMP280;46580;52.114;11.674;2022-11-20T11:27:52;100452.72;;;2.08
60731;BMP280;46580;52.114;11.674;2022-11-20T11:30:19;100462.63;;;2.13
60731;BMP280;46580;52.114;11.674;2022-11-20T11:32:45;100469.97;;;2.19
60731;BMP280;46580;52.114;11.674;2022-11-20T11:35:22;100476.47;;;2.24
60731;BMP280;46580;52.114;11.674;2022-11-20T11:37:48;100468.31;;;2.52
60731;BMP280;46580;52.114;11.674;2022-11-20T11:40:17;100470.94;;;2.67
60731;BMP280;46580;52.114;11.674;2022-11-20T11:42:44;100477.06;;;2.80
60731;BMP280;46580;52.114;11.674;2022-11-20T11:45:14;100461.97;;;2.77
60731;BMP280;46580;52.114;11.674;2022-11-20T11:55:33;100471.31;;;2.77
60731;BMP280;46580;52.114;11.674;2022-11-20T12:04:04;100449.78;;;2.67
60731;BMP280;46580;52.114;11.674;2022-11-20T12:06:32;100459.13;;;2.66
60731;BMP280;46580;52.114;11.674;2022-11-20T12:09:03;100470.56;;;2.91
60731;BMP280;46580;52.114;11.674;2022-11-20T12:11:55;100472.28;;;3.07
60731;BMP280;46580;52.114;11.674;2022-11-20T12:14:42;100468.31;;;2.85
60731;BMP280;46580;52.114;11.674;2022-11-20T12:17:12;100470.72;;;2.72
60731;BMP280;46580;52.114;11.674;2022-11-20T12:19:38;100462.44;;;2.68
60731;BMP280;46580;52.114;11.674;2022-11-20T12:24:52;100458.19;;;2.69
60731;BMP280;46580;52.114;11.674;2022-11-20T12:30:23;100451.81;;;2.77
60731;BMP280;46580;52.114;11.674;2022-11-20T12:43:31;100448.94;;;3.48
60731;BMP280;46580;52.114;11.674;2022-11-20T12:49:33;100445.06;;;3.09
60731;BMP280;46580;52.114;11.674;2022-11-20T12:55:13;100435.66;;;2.95
60731;BMP280;46580;52.114;11.674;2022-11-20T12:57:57;100441.47;;;2.96
60731;BMP280;46580;52.114;11.674;2022-11-20T13:00:24;100437.91;;;3.00
60731;BMP280;46580;52.114;11.674;2022-11-20T13:08:11;100425.91;;;3.19
60731;BMP280;46580;52.114;11.674;2022-11-20T13:10:43;100424.06;;;3.06
60731;BMP280;46580;52.114;11.674;2022-11-20T13:13:29;100415.59;;;3.22
60731;BMP280;46580;52.114;11.674;2022-11-20T13:16:19;100413.22;;;3.34
60731;BMP280;46580;52.114;11.674;2022-11-20T13:18:48;100413.69;;;3.57
60731;BMP280;46580;52.114;11.674;2022-11-20T13:21:37;100415.19;;;3.44
60731;BMP280;46580;52.114;11.674;2022-11-20T13:24:18;100409.50;;;3.24
60731;BMP280;46580;52.114;11.674;2022-11-20T13:26:46;100407.84;;;3.08
60731;BMP280;46580;52.114;11.674;2022-11-20T13:29:16;100413.94;;;3.21
60731;BMP280;46580;52.114;11.674;2022-11-20T13:31:48;100410.13;;;3.13
60731;BMP280;46580;52.114;11.674;2022-11-20T13:34:25;100412.91;;;3.08
60731;BMP280;46580;52.114;11.674;2022-11-20T13:36:53;100410.63;;;3.19
60731;BMP280;46580;52.114;11.674;2022-11-20T13:39:31;100407.47;;;3.31
60731;BMP280;46580;52.114;11.674;2022-11-20T13:41:59;100408.13;;;3.34
60731;BMP280;46580;52.114;11.674;2022-11-20T13:44:33;100402.97;;;3.35
60731;BMP280;46580;52.114;11.674;2022-11-20T13:47:00;100402.47;;;3.29
60731;BMP280;46580;52.114;11.674;2022-11-20T13:49:31;100410.19;;;3.28
60731;BMP280;46580;52.114;11.674;2022-11-20T14:00:22;100404.91;;;2.67
60731;BMP280;46580;52.114;11.674;2022-11-20T14:05:35;100409.06;;;2.52
60731;BMP280;46580;52.114;11.674;2022-11-20T14:08:03;100406.69;;;2.49
60731;BMP280;46580;52.114;11.674;2022-11-20T14:10:30;100400.16;;;2.43
60731;BMP280;46580;52.114;11.674;2022-11-20T14:12:56;100396.97;;;2.40
60731;BMP280;46580;52.114;11.674;2022-11-20T14:15:32;100398.00;;;2.36
60731;BMP280;46580;52.114;11.674;2022-11-20T14:17:58;100403.25;;;2.33
60731;BMP280;46580;52.114;11.674;2022-11-20T14:20:27;100405.78;;;2.33
60731;BMP280;46580;52.114;11.674;2022-11-20T14:22:54;100393.91;;;2.34
60731;BMP280;46580;52.114;11.674;2022-11-20T14:25:25;100398.00;;;2.36
60731;BMP280;46580;52.114;11.674;2022-11-20T14:27:58;100393.75;;;2.37
60731;BMP280;46580;52.114;11.674;2022-11-20T14:30:39;100400.72;;;2.33
60731;BMP280;46580;52.114;11.674;2022-11-20T14:33:11;100393.22;;;2.30
60731;BMP280;46580;52.114;11.674;2022-11-20T14:35:44;100389.03;;;2.29
60731;BMP280;46580;52.114;11.674;2022-11-20T14:38:12;100397.63;;;2.27
60731;BMP280;46580;52.114;11.674;2022-11-20T14:40:38;100388.44;;;2.24
60731;BMP280;46580;52.114;11.674;2022-11-20T14:43:27;100395.41;;;2.21
60731;BMP280;46580;52.114;11.674;2022-11-20T14:45:58;100398.06;;;2.18
60731;BMP280;46580;52.114;11.674;2022-11-20T14:48:29;100393.81;;;2.19
60731;BMP280;46580;52.114;11.674;2022-11-20T14:50:56;100394.09;;;2.13
60731;BMP280;46580;52.114;11.674;2022-11-20T14:53:23;100390.06;;;2.09
60731;BMP280;46580;52.114;11.674;2022-11-20T14:55:58;100388.56;;;2.05
60731;BMP280;46580;52.114;11.674;2022-11-20T14:58:26;100389.47;;;2.04
60731;BMP280;46580;52.114;11.674;2022-11-20T15:00:59;100388.72;;;2.02
60731;BMP280;46580;52.114;11.674;2022-11-20T15:03:36;100388.03;;;1.99
60731;BMP280;46580;52.114;11.674;2022-11-20T15:06:02;100394.22;;;1.93
60731;BMP280;46580;52.114;11.674;2022-11-20T15:08:28;100391.88;;;1.89
60731;BMP280;46580;52.114;11.674;2022-11-20T15:10:55;100393.69;;;1.87
60731;BMP280;46580;52.114;11.674;2022-11-20T15:13:33;100388.81;;;1.83
60731;BMP280;46580;52.114;11.674;2022-11-20T15:16:04;100391.63;;;1.77
60731;BMP280;46580;52.114;11.674;2022-11-20T15:18:38;100392.69;;;1.73
60731;BMP280;46580;52.114;11.674;2022-11-20T15:21:10;100390.25;;;1.70
60731;BMP280;46580;52.114;11.674;2022-11-20T15:23:36;100389.66;;;1.65
60731;BMP280;46580;52.114;11.674;2022-11-20T15:26:04;100384.81;;;1.61
60731;BMP280;46580;52.114;11.674;2022-11-20T15:28:33;100379.03;;;1.57
60731;BMP280;46580;52.114;11.674;2022-11-20T15:30:59;100368.28;;;1.52
60731;BMP280;46580;52.114;11.674;2022-11-20T15:33:25;100371.72;;;1.51
60731;BMP280;46580;52.114;11.674;2022-11-20T15:35:51;100364.22;;;1.48
60731;BMP280;46580;52.114;11.674;2022-11-20T15:38:16;100362.66;;;1.46